Szafir — 5BFC3 — position and weather

sailwx.info

Track history (hours):
 
Tides and Currents Weather Stations Pressure Air Temp Water Temp Dewpoint Dewpoint Depression Visibility Wind Speed Wind Dir Waves Ship Positions

Szafir

Last reported at 2014-Nov-14 19:24 UTC. Time now 2014-Dec-21 12:49 UTC.
Position N 43°36' W 003°31'.
Warning: this ship's position is 36 days out of date.

Length 113 m; draft 5 m.

Type: Ship. MMSI: 209366000.

Date/timePositionNaut miles runAvg speedWind from/ knotsBaromVisibWave heightAir tempDewpointWater temp
2014-Nov-14 19:24N 43°36' W 003°31'910.2
2014-Nov-14 18:33N 43°36' W 003°19'1010.5
2014-Nov-14 17:33N 43°35' W 003°04'1010.1
2014-Nov-14 16:33N 43°35' W 002°50'1010.2
2014-Nov-14 15:33N 43°34' W 002°36'4110.1
2014-Nov-14 11:32N 43°33' W 001°40'7 3.4
2014-Nov-14 09:28N 43°32' W 001°31'3 0.1
2014-Nov-12 14:34N 43°33' W 001°34'2 2.2
2014-Nov-12 13:28N 43°33' W 001°37'0 0.3
2014-Nov-12 12:33N 43°33' W 001°37'1 0.6
2014-Nov-12 11:29N 43°33' W 001°36'5 4.8
2014-Nov-12 10:32N 43°33' W 001°42'35 8.2
2014-Nov-12 06:17N 43°36' W 002°30'811.4
2014-Nov-12 05:34N 43°37' W 002°41'1111.0
2014-Nov-12 04:33N 43°38' W 002°57'1111.0
2014-Nov-12 03:34N 43°38' W 003°12'1111.0
2014-Nov-12 02:34N 43°39' W 003°27'8011.4
2014-Nov-11 19:33N 43°46' W 005°17'1211.4
2014-Nov-11 18:28N 43°47' W 005°34'1111.4
2014-Nov-11 17:31N 43°48' W 005°49'  
Track history (hours):
 
Tides and Currents Weather Stations Pressure Air Temp Water Temp Dewpoint Dewpoint Depression Visibility Wind Speed Wind Dir Waves Ship Positions

Szafir

Last reported at 2014-Nov-14 19:24 UTC. Time now 2014-Dec-21 12:49 UTC.
Position N 43°36' W 003°31'.
Warning: this ship's position is 36 days out of date.

Length 113 m; draft 5 m.

Type: Ship. MMSI: 209366000.

Date/timePositionNaut miles runAvg speedWind from/ knotsBaromVisibWave heightAir tempDewpointWater temp
2014-Nov-14 19:24N 43°36' W 003°31'910.2
2014-Nov-14 18:33N 43°36' W 003°19'1010.5
2014-Nov-14 17:33N 43°35' W 003°04'1010.1
2014-Nov-14 16:33N 43°35' W 002°50'1010.2
2014-Nov-14 15:33N 43°34' W 002°36'4110.1
2014-Nov-14 11:32N 43°33' W 001°40'7 3.4
2014-Nov-14 09:28N 43°32' W 001°31'3 0.1
2014-Nov-12 14:34N 43°33' W 001°34'2 2.2
2014-Nov-12 13:28N 43°33' W 001°37'0 0.3
2014-Nov-12 12:33N 43°33' W 001°37'1 0.6
2014-Nov-12 11:29N 43°33' W 001°36'5 4.8
2014-Nov-12 10:32N 43°33' W 001°42'35 8.2
2014-Nov-12 06:17N 43°36' W 002°30'811.4
2014-Nov-12 05:34N 43°37' W 002°41'1111.0
2014-Nov-12 04:33N 43°38' W 002°57'1111.0
2014-Nov-12 03:34N 43°38' W 003°12'1111.0
2014-Nov-12 02:34N 43°39' W 003°27'8011.4
2014-Nov-11 19:33N 43°46' W 005°17'1211.4
2014-Nov-11 18:28N 43°47' W 005°34'1111.4
2014-Nov-11 17:31N 43°48' W 005°49'  

Dump ship's entire track history